sensor_id;sensor_type;location;lat;lon;timestamp;P1;durP1;ratioP1;P2;durP2;ratioP2
3443;SDS011;1736;52.068;6.968;2022-10-03T00:00:40;11.00;;;3.27;;
3443;SDS011;1736;52.068;6.968;2022-10-03T00:03:29;13.47;;;3.93;;
3443;SDS011;1736;52.068;6.968;2022-10-03T00:06:04;8.80;;;3.63;;
3443;SDS011;1736;52.068;6.968;2022-10-03T00:08:45;15.13;;;3.67;;
3443;SDS011;1736;52.068;6.968;2022-10-03T00:11:26;10.87;;;3.10;;
3443;SDS011;1736;52.068;6.968;2022-10-03T00:14:04;11.37;;;3.30;;
3443;SDS011;1736;52.068;6.968;2022-10-03T00:16:41;5.97;;;3.07;;
3443;SDS011;1736;52.068;6.968;2022-10-03T00:19:15;15.03;;;3.63;;
3443;SDS011;1736;52.068;6.968;2022-10-03T00:21:52;22.80;;;4.50;;
3443;SDS011;1736;52.068;6.968;2022-10-03T00:24:38;11.83;;;3.37;;
3443;SDS011;1736;52.068;6.968;2022-10-03T00:27:11;13.67;;;3.93;;
3443;SDS011;1736;52.068;6.968;2022-10-03T00:29:49;11.00;;;3.97;;
3443;SDS011;1736;52.068;6.968;2022-10-03T00:32:31;15.10;;;4.60;;
3443;SDS011;1736;52.068;6.968;2022-10-03T00:35:13;20.97;;;3.90;;
3443;SDS011;1736;52.068;6.968;2022-10-03T00:37:53;13.07;;;3.43;;
3443;SDS011;1736;52.068;6.968;2022-10-03T00:40:38;5.87;;;3.30;;
3443;SDS011;1736;52.068;6.968;2022-10-03T00:43:34;6.87;;;3.10;;
3443;SDS011;1736;52.068;6.968;2022-10-03T00:46:25;13.80;;;3.67;;
3443;SDS011;1736;52.068;6.968;2022-10-03T00:52:36;12.43;;;3.60;;
3443;SDS011;1736;52.068;6.968;2022-10-03T00:55:14;8.03;;;3.63;;
3443;SDS011;1736;52.068;6.968;2022-10-03T00:57:56;13.07;;;3.57;;
3443;SDS011;1736;52.068;6.968;2022-10-03T01:00:32;12.80;;;3.50;;
3443;SDS011;1736;52.068;6.968;2022-10-03T01:03:04;13.10;;;4.27;;
3443;SDS011;1736;52.068;6.968;2022-10-03T01:05:42;9.87;;;4.30;;
3443;SDS011;1736;52.068;6.968;2022-10-03T01:08:34;11.47;;;3.97;;
3443;SDS011;1736;52.068;6.968;2022-10-03T01:11:11;9.73;;;4.50;;
3443;SDS011;1736;52.068;6.968;2022-10-03T01:13:49;14.30;;;4.00;;
3443;SDS011;1736;52.068;6.968;2022-10-03T01:16:29;13.20;;;3.73;;
3443;SDS011;1736;52.068;6.968;2022-10-03T01:19:03;15.60;;;3.90;;
3443;SDS011;1736;52.068;6.968;2022-10-03T01:21:48;14.80;;;3.17;;
3443;SDS011;1736;52.068;6.968;2022-10-03T01:24:32;8.77;;;3.80;;
3443;SDS011;1736;52.068;6.968;2022-10-03T01:27:15;12.20;;;3.40;;
3443;SDS011;1736;52.068;6.968;2022-10-03T01:29:52;9.40;;;3.83;;
3443;SDS011;1736;52.068;6.968;2022-10-03T01:32:43;7.90;;;3.53;;
3443;SDS011;1736;52.068;6.968;2022-10-03T01:35:19;10.17;;;2.83;;
3443;SDS011;1736;52.068;6.968;2022-10-03T01:37:56;11.33;;;3.07;;
3443;SDS011;1736;52.068;6.968;2022-10-03T01:40:29;14.33;;;4.23;;
3443;SDS011;1736;52.068;6.968;2022-10-03T01:43:05;14.10;;;3.37;;
3443;SDS011;1736;52.068;6.968;2022-10-03T01:45:43;12.37;;;3.60;;
3443;SDS011;1736;52.068;6.968;2022-10-03T01:48:20;11.53;;;3.70;;
3443;SDS011;1736;52.068;6.968;2022-10-03T01:50:55;11.10;;;4.50;;
3443;SDS011;1736;52.068;6.968;2022-10-03T01:53:31;9.10;;;3.57;;
3443;SDS011;1736;52.068;6.968;2022-10-03T01:56:05;11.93;;;3.97;;
3443;SDS011;1736;52.068;6.968;2022-10-03T01:58:40;11.33;;;4.10;;
3443;SDS011;1736;52.068;6.968;2022-10-03T02:01:19;9.63;;;3.53;;
3443;SDS011;1736;52.068;6.968;2022-10-03T02:03:52;7.30;;;3.00;;
3443;SDS011;1736;52.068;6.968;2022-10-03T02:06:25;9.67;;;3.63;;
3443;SDS011;1736;52.068;6.968;2022-10-03T02:09:01;9.93;;;3.30;;
3443;SDS011;1736;52.068;6.968;2022-10-03T02:11:36;14.13;;;4.97;;
3443;SDS011;1736;52.068;6.968;2022-10-03T02:14:06;6.57;;;3.87;;
3443;SDS011;1736;52.068;6.968;2022-10-03T02:16:49;12.87;;;3.83;;
3443;SDS011;1736;52.068;6.968;2022-10-03T02:19:23;10.47;;;5.23;;
3443;SDS011;1736;52.068;6.968;2022-10-03T02:21:54;8.03;;;4.27;;
3443;SDS011;1736;52.068;6.968;2022-10-03T02:24:31;12.43;;;3.63;;
3443;SDS011;1736;52.068;6.968;2022-10-03T02:27:11;5.20;;;3.63;;
3443;SDS011;1736;52.068;6.968;2022-10-03T02:29:51;9.67;;;3.50;;
3443;SDS011;1736;52.068;6.968;2022-10-03T02:32:35;10.90;;;4.00;;
3443;SDS011;1736;52.068;6.968;2022-10-03T02:38:27;15.13;;;4.20;;
3443;SDS011;1736;52.068;6.968;2022-10-03T02:41:15;20.77;;;3.60;;
3443;SDS011;1736;52.068;6.968;2022-10-03T02:56:29;10.53;;;3.50;;
3443;SDS011;1736;52.068;6.968;2022-10-03T03:05:33;11.10;;;3.83;;
3443;SDS011;1736;52.068;6.968;2022-10-03T03:08:26;11.70;;;3.40;;
3443;SDS011;1736;52.068;6.968;2022-10-03T03:11:28;9.50;;;3.43;;
3443;SDS011;1736;52.068;6.968;2022-10-03T03:17:16;15.17;;;4.70;;
3443;SDS011;1736;52.068;6.968;2022-10-03T03:23:01;11.70;;;4.33;;
3443;SDS011;1736;52.068;6.968;2022-10-03T03:26:03;6.07;;;3.70;;
3443;SDS011;1736;52.068;6.968;2022-10-03T03:28:54;10.90;;;3.53;;
3443;SDS011;1736;52.068;6.968;2022-10-03T03:31:29;10.53;;;4.20;;
3443;SDS011;1736;52.068;6.968;2022-10-03T03:34:01;24.80;;;4.53;;
3443;SDS011;1736;52.068;6.968;2022-10-03T03:36:35;12.27;;;4.03;;
3443;SDS011;1736;52.068;6.968;2022-10-03T03:39:13;17.40;;;4.53;;
3443;SDS011;1736;52.068;6.968;2022-10-03T03:42:01;13.23;;;3.20;;
3443;SDS011;1736;52.068;6.968;2022-10-03T03:47:43;17.03;;;4.27;;
3443;SDS011;1736;52.068;6.968;2022-10-03T03:50:39;12.53;;;4.57;;
3443;SDS011;1736;52.068;6.968;2022-10-03T03:53:21;13.10;;;4.03;;
3443;SDS011;1736;52.068;6.968;2022-10-03T03:56:16;12.70;;;3.40;;
3443;SDS011;1736;52.068;6.968;2022-10-03T03:59:03;7.13;;;3.80;;
3443;SDS011;1736;52.068;6.968;2022-10-03T04:07:25;11.60;;;4.00;;
3443;SDS011;1736;52.068;6.968;2022-10-03T04:10:10;11.83;;;4.30;;
3443;SDS011;1736;52.068;6.968;2022-10-03T04:12:50;14.77;;;5.10;;
3443;SDS011;1736;52.068;6.968;2022-10-03T04:15:29;16.63;;;4.40;;
3443;SDS011;1736;52.068;6.968;2022-10-03T04:18:10;14.23;;;4.33;;
3443;SDS011;1736;52.068;6.968;2022-10-03T04:21:15;8.57;;;3.73;;
3443;SDS011;1736;52.068;6.968;2022-10-03T04:24:07;9.57;;;3.70;;
3443;SDS011;1736;52.068;6.968;2022-10-03T04:26:55;17.17;;;4.20;;
3443;SDS011;1736;52.068;6.968;2022-10-03T04:29:37;6.43;;;3.63;;
3443;SDS011;1736;52.068;6.968;2022-10-03T04:35:11;7.13;;;3.27;;
3443;SDS011;1736;52.068;6.968;2022-10-03T04:37:51;7.43;;;4.17;;
3443;SDS011;1736;52.068;6.968;2022-10-03T04:40:37;10.20;;;4.00;;
3443;SDS011;1736;52.068;6.968;2022-10-03T04:43:13;10.97;;;4.20;;
3443;SDS011;1736;52.068;6.968;2022-10-03T04:45:51;8.57;;;4.07;;
3443;SDS011;1736;52.068;6.968;2022-10-03T04:48:28;8.73;;;4.47;;
3443;SDS011;1736;52.068;6.968;2022-10-03T04:51:05;10.80;;;4.87;;
3443;SDS011;1736;52.068;6.968;2022-10-03T04:53:40;4.80;;;3.77;;
3443;SDS011;1736;52.068;6.968;2022-10-03T04:56:21;8.33;;;3.60;;
3443;SDS011;1736;52.068;6.968;2022-10-03T04:59:00;9.63;;;3.83;;
3443;SDS011;1736;52.068;6.968;2022-10-03T05:01:46;17.10;;;4.90;;
3443;SDS011;1736;52.068;6.968;2022-10-03T05:04:18;8.20;;;3.93;;
3443;SDS011;1736;52.068;6.968;2022-10-03T05:06:57;6.73;;;4.30;;
3443;SDS011;1736;52.068;6.968;2022-10-03T05:09:34;12.37;;;3.93;;
3443;SDS011;1736;52.068;6.968;2022-10-03T05:12:06;17.10;;;4.93;;
3443;SDS011;1736;52.068;6.968;2022-10-03T05:14:43;17.73;;;5.63;;
3443;SDS011;1736;52.068;6.968;2022-10-03T05:17:23;11.00;;;4.50;;
3443;SDS011;1736;52.068;6.968;2022-10-03T05:22:53;16.80;;;5.40;;
3443;SDS011;1736;52.068;6.968;2022-10-03T05:25:28;7.27;;;4.17;;
3443;SDS011;1736;52.068;6.968;2022-10-03T05:28:09;9.43;;;4.83;;
3443;SDS011;1736;52.068;6.968;2022-10-03T05:30:46;11.83;;;5.60;;
3443;SDS011;1736;52.068;6.968;2022-10-03T05:33:21;9.93;;;6.07;;
3443;SDS011;1736;52.068;6.968;2022-10-03T05:36:02;15.93;;;4.63;;
3443;SDS011;1736;52.068;6.968;2022-10-03T05:41:37;7.83;;;5.23;;
3443;SDS011;1736;52.068;6.968;2022-10-03T05:44:08;8.70;;;5.20;;
3443;SDS011;1736;52.068;6.968;2022-10-03T05:46:56;9.93;;;5.20;;
3443;SDS011;1736;52.068;6.968;2022-10-03T05:49:34;14.10;;;5.23;;
3443;SDS011;1736;52.068;6.968;2022-10-03T05:52:15;13.20;;;5.67;;
3443;SDS011;1736;52.068;6.968;2022-10-03T05:55:04;15.83;;;5.00;;
3443;SDS011;1736;52.068;6.968;2022-10-03T05:57:48;16.70;;;4.60;;
3443;SDS011;1736;52.068;6.968;2022-10-03T06:00:38;11.30;;;5.20;;
3443;SDS011;1736;52.068;6.968;2022-10-03T06:03:38;7.83;;;4.70;;
3443;SDS011;1736;52.068;6.968;2022-10-03T06:06:26;8.07;;;4.80;;
3443;SDS011;1736;52.068;6.968;2022-10-03T06:12:02;15.17;;;6.40;;
3443;SDS011;1736;52.068;6.968;2022-10-03T06:14:37;12.27;;;5.23;;
3443;SDS011;1736;52.068;6.968;2022-10-03T06:17:27;15.63;;;6.40;;
3443;SDS011;1736;52.068;6.968;2022-10-03T06:20:11;13.90;;;5.70;;
3443;SDS011;1736;52.068;6.968;2022-10-03T06:35:30;17.90;;;5.73;;
3443;SDS011;1736;52.068;6.968;2022-10-03T06:38:27;13.97;;;5.83;;
3443;SDS011;1736;52.068;6.968;2022-10-03T06:44:23;16.60;;;6.50;;
3443;SDS011;1736;52.068;6.968;2022-10-03T06:50:13;20.67;;;7.77;;
3443;SDS011;1736;52.068;6.968;2022-10-03T06:53:11;17.13;;;6.97;;
3443;SDS011;1736;52.068;6.968;2022-10-03T06:56:03;17.33;;;8.17;;
3443;SDS011;1736;52.068;6.968;2022-10-03T06:59:06;23.70;;;7.80;;
3443;SDS011;1736;52.068;6.968;2022-10-03T07:02:14;22.10;;;9.73;;
3443;SDS011;1736;52.068;6.968;2022-10-03T07:05:12;16.47;;;8.13;;
3443;SDS011;1736;52.068;6.968;2022-10-03T07:17:30;18.40;;;9.87;;
3443;SDS011;1736;52.068;6.968;2022-10-03T07:23:30;22.50;;;9.27;;
3443;SDS011;1736;52.068;6.968;2022-10-03T07:26:14;24.57;;;10.93;;
3443;SDS011;1736;52.068;6.968;2022-10-03T07:29:11;18.03;;;8.23;;
3443;SDS011;1736;52.068;6.968;2022-10-03T07:31:48;13.73;;;8.77;;
3443;SDS011;1736;52.068;6.968;2022-10-03T07:37:45;25.27;;;9.93;;
3443;SDS011;1736;52.068;6.968;2022-10-03T07:41:00;15.63;;;8.00;;
3443;SDS011;1736;52.068;6.968;2022-10-03T07:50:28;13.67;;;7.80;;
3443;SDS011;1736;52.068;6.968;2022-10-03T07:53:16;14.83;;;7.77;;
3443;SDS011;1736;52.068;6.968;2022-10-03T07:56:16;12.00;;;6.80;;
3443;SDS011;1736;52.068;6.968;2022-10-03T07:59:19;18.17;;;6.20;;
3443;SDS011;1736;52.068;6.968;2022-10-03T08:02:27;13.73;;;6.37;;
3443;SDS011;1736;52.068;6.968;2022-10-03T08:05:10;13.63;;;6.57;;
3443;SDS011;1736;52.068;6.968;2022-10-03T08:07:54;11.70;;;5.80;;
3443;SDS011;1736;52.068;6.968;2022-10-03T08:13:41;12.97;;;6.27;;
3443;SDS011;1736;52.068;6.968;2022-10-03T08:16:33;11.83;;;6.37;;
3443;SDS011;1736;52.068;6.968;2022-10-03T08:19:29;17.83;;;6.50;;
3443;SDS011;1736;52.068;6.968;2022-10-03T08:22:14;12.57;;;6.60;;
3443;SDS011;1736;52.068;6.968;2022-10-03T08:24:59;9.73;;;5.20;;
3443;SDS011;1736;52.068;6.968;2022-10-03T08:27:54;9.63;;;4.77;;
3443;SDS011;1736;52.068;6.968;2022-10-03T08:30:37;9.90;;;5.20;;
3443;SDS011;1736;52.068;6.968;2022-10-03T08:33:32;8.70;;;5.00;;
3443;SDS011;1736;52.068;6.968;2022-10-03T08:39:24;16.90;;;6.20;;
3443;SDS011;1736;52.068;6.968;2022-10-03T08:42:11;11.13;;;5.20;;
3443;SDS011;1736;52.068;6.968;2022-10-03T08:45:11;15.97;;;6.27;;
3443;SDS011;1736;52.068;6.968;2022-10-03T08:48:20;9.60;;;5.10;;
3443;SDS011;1736;52.068;6.968;2022-10-03T08:51:37;14.60;;;6.00;;
3443;SDS011;1736;52.068;6.968;2022-10-03T08:57:21;10.30;;;6.20;;
3443;SDS011;1736;52.068;6.968;2022-10-03T09:00:03;14.67;;;5.40;;
3443;SDS011;1736;52.068;6.968;2022-10-03T09:09:18;11.30;;;4.77;;
3443;SDS011;1736;52.068;6.968;2022-10-03T09:12:12;7.60;;;4.07;;
3443;SDS011;1736;52.068;6.968;2022-10-03T09:14:59;8.40;;;3.87;;
3443;SDS011;1736;52.068;6.968;2022-10-03T09:27:19;12.80;;;3.50;;
3443;SDS011;1736;52.068;6.968;2022-10-03T09:30:25;8.20;;;3.27;;
3443;SDS011;1736;52.068;6.968;2022-10-03T09:33:16;5.13;;;2.50;;
3443;SDS011;1736;52.068;6.968;2022-10-03T09:36:11;6.07;;;2.37;;
3443;SDS011;1736;52.068;6.968;2022-10-03T09:39:10;7.37;;;2.73;;
3443;SDS011;1736;52.068;6.968;2022-10-03T09:42:10;6.90;;;2.27;;
3443;SDS011;1736;52.068;6.968;2022-10-03T09:48:06;4.93;;;2.30;;
3443;SDS011;1736;52.068;6.968;2022-10-03T09:53:58;7.77;;;2.20;;
3443;SDS011;1736;52.068;6.968;2022-10-03T10:00:11;9.10;;;2.80;;
3443;SDS011;1736;52.068;6.968;2022-10-03T10:06:02;7.10;;;3.60;;
3443;SDS011;1736;52.068;6.968;2022-10-03T10:08:49;7.63;;;2.60;;
3443;SDS011;1736;52.068;6.968;2022-10-03T10:11:48;5.50;;;2.77;;
3443;SDS011;1736;52.068;6.968;2022-10-03T10:14:42;7.90;;;2.83;;
3443;SDS011;1736;52.068;6.968;2022-10-03T10:17:38;6.17;;;2.40;;
3443;SDS011;1736;52.068;6.968;2022-10-03T10:20:35;8.30;;;3.13;;
3443;SDS011;1736;52.068;6.968;2022-10-03T10:23:26;6.37;;;2.50;;
3443;SDS011;1736;52.068;6.968;2022-10-03T10:29:12;6.90;;;2.90;;
3443;SDS011;1736;52.068;6.968;2022-10-03T10:35:03;5.23;;;2.23;;
3443;SDS011;1736;52.068;6.968;2022-10-03T10:41:16;6.60;;;1.87;;
3443;SDS011;1736;52.068;6.968;2022-10-03T10:47:45;4.00;;;1.90;;
3443;SDS011;1736;52.068;6.968;2022-10-03T10:50:47;5.13;;;2.30;;
3443;SDS011;1736;52.068;6.968;2022-10-03T10:57:09;8.73;;;1.70;;
3443;SDS011;1736;52.068;6.968;2022-10-03T11:00:11;11.23;;;1.90;;
3443;SDS011;1736;52.068;6.968;2022-10-03T11:06:30;5.03;;;2.20;;
3443;SDS011;1736;52.068;6.968;2022-10-03T11:22:47;4.10;;;1.60;;
3443;SDS011;1736;52.068;6.968;2022-10-03T11:32:02;4.00;;;1.50;;
3443;SDS011;1736;52.068;6.968;2022-10-03T11:35:02;4.53;;;1.70;;
3443;SDS011;1736;52.068;6.968;2022-10-03T11:37:52;9.67;;;1.73;;
3443;SDS011;1736;52.068;6.968;2022-10-03T11:40:28;7.07;;;2.03;;
3443;SDS011;1736;52.068;6.968;2022-10-03T11:46:13;7.20;;;1.63;;
3443;SDS011;1736;52.068;6.968;2022-10-03T11:48:59;5.63;;;1.80;;
3443;SDS011;1736;52.068;6.968;2022-10-03T11:51:39;8.40;;;1.57;;
3443;SDS011;1736;52.068;6.968;2022-10-03T11:54:17;3.60;;;1.60;;
3443;SDS011;1736;52.068;6.968;2022-10-03T11:56:50;5.40;;;1.57;;
3443;SDS011;1736;52.068;6.968;2022-10-03T11:59:31;5.20;;;1.60;;
3443;SDS011;1736;52.068;6.968;2022-10-03T12:02:07;6.17;;;2.50;;
3443;SDS011;1736;52.068;6.968;2022-10-03T12:04:45;4.67;;;1.40;;
3443;SDS011;1736;52.068;6.968;2022-10-03T12:07:20;6.20;;;1.50;;
3443;SDS011;1736;52.068;6.968;2022-10-03T12:10:24;2.90;;;1.70;;
3443;SDS011;1736;52.068;6.968;2022-10-03T12:13:02;5.63;;;2.23;;
3443;SDS011;1736;52.068;6.968;2022-10-03T12:15:36;2.77;;;1.40;;
3443;SDS011;1736;52.068;6.968;2022-10-03T12:18:08;4.13;;;2.20;;
3443;SDS011;1736;52.068;6.968;2022-10-03T12:20:43;5.40;;;1.80;;
3443;SDS011;1736;52.068;6.968;2022-10-03T12:23:25;2.73;;;1.40;;
3443;SDS011;1736;52.068;6.968;2022-10-03T12:26:07;6.10;;;1.77;;
3443;SDS011;1736;52.068;6.968;2022-10-03T12:28:41;7.43;;;1.70;;
3443;SDS011;1736;52.068;6.968;2022-10-03T12:31:16;3.53;;;1.60;;
3443;SDS011;1736;52.068;6.968;2022-10-03T12:33:50;9.73;;;2.07;;
3443;SDS011;1736;52.068;6.968;2022-10-03T12:36:22;3.90;;;1.53;;
3443;SDS011;1736;52.068;6.968;2022-10-03T12:39:01;4.33;;;1.60;;
3443;SDS011;1736;52.068;6.968;2022-10-03T12:41:50;3.43;;;1.90;;
3443;SDS011;1736;52.068;6.968;2022-10-03T12:44:36;5.73;;;1.70;;
3443;SDS011;1736;52.068;6.968;2022-10-03T12:47:16;4.20;;;1.43;;
3443;SDS011;1736;52.068;6.968;2022-10-03T12:49:54;9.00;;;1.70;;
3443;SDS011;1736;52.068;6.968;2022-10-03T12:52:27;4.73;;;1.90;;
3443;SDS011;1736;52.068;6.968;2022-10-03T12:55:12;3.80;;;1.60;;
3443;SDS011;1736;52.068;6.968;2022-10-03T12:57:51;6.97;;;1.53;;
3443;SDS011;1736;52.068;6.968;2022-10-03T13:00:22;5.03;;;1.70;;
3443;SDS011;1736;52.068;6.968;2022-10-03T13:02:58;3.87;;;1.60;;
3443;SDS011;1736;52.068;6.968;2022-10-03T13:05:43;8.40;;;2.20;;
3443;SDS011;1736;52.068;6.968;2022-10-03T13:08:28;6.57;;;1.83;;
3443;SDS011;1736;52.068;6.968;2022-10-03T13:11:09;4.27;;;2.00;;
3443;SDS011;1736;52.068;6.968;2022-10-03T13:13:51;3.87;;;1.90;;
3443;SDS011;1736;52.068;6.968;2022-10-03T13:16:30;3.77;;;1.97;;
3443;SDS011;1736;52.068;6.968;2022-10-03T13:19:03;7.03;;;1.70;;
3443;SDS011;1736;52.068;6.968;2022-10-03T13:21:46;6.07;;;1.90;;
3443;SDS011;1736;52.068;6.968;2022-10-03T13:24:28;11.57;;;1.80;;
3443;SDS011;1736;52.068;6.968;2022-10-03T13:27:03;2.90;;;1.73;;
3443;SDS011;1736;52.068;6.968;2022-10-03T13:29:43;2.50;;;1.53;;
3443;SDS011;1736;52.068;6.968;2022-10-03T13:32:16;4.73;;;2.47;;
3443;SDS011;1736;52.068;6.968;2022-10-03T13:34:55;7.73;;;1.70;;
3443;SDS011;1736;52.068;6.968;2022-10-03T13:40:38;4.67;;;2.00;;
3443;SDS011;1736;52.068;6.968;2022-10-03T13:43:11;3.30;;;1.40;;
3443;SDS011;1736;52.068;6.968;2022-10-03T13:45:42;3.73;;;1.37;;
3443;SDS011;1736;52.068;6.968;2022-10-03T13:48:13;2.70;;;1.47;;
3443;SDS011;1736;52.068;6.968;2022-10-03T13:50:44;3.73;;;1.77;;
3443;SDS011;1736;52.068;6.968;2022-10-03T13:53:24;3.80;;;1.60;;
3443;SDS011;1736;52.068;6.968;2022-10-03T13:56:01;3.13;;;1.70;;
3443;SDS011;1736;52.068;6.968;2022-10-03T13:58:37;6.03;;;1.73;;
3443;SDS011;1736;52.068;6.968;2022-10-03T14:01:26;5.20;;;1.60;;
3443;SDS011;1736;52.068;6.968;2022-10-03T14:04:12;4.90;;;2.03;;
3443;SDS011;1736;52.068;6.968;2022-10-03T14:06:48;3.37;;;1.60;;
3443;SDS011;1736;52.068;6.968;2022-10-03T14:09:27;3.47;;;1.73;;
3443;SDS011;1736;52.068;6.968;2022-10-03T14:12:05;4.37;;;1.47;;
3443;SDS011;1736;52.068;6.968;2022-10-03T14:14:47;3.00;;;1.47;;
3443;SDS011;1736;52.068;6.968;2022-10-03T14:17:24;3.23;;;1.47;;
3443;SDS011;1736;52.068;6.968;2022-10-03T14:20:04;3.20;;;1.70;;
3443;SDS011;1736;52.068;6.968;2022-10-03T14:22:44;6.13;;;1.80;;
3443;SDS011;1736;52.068;6.968;2022-10-03T14:25:22;6.30;;;2.00;;
3443;SDS011;1736;52.068;6.968;2022-10-03T14:27:52;3.57;;;1.57;;
3443;SDS011;1736;52.068;6.968;2022-10-03T14:30:22;6.20;;;1.60;;
3443;SDS011;1736;52.068;6.968;2022-10-03T14:33:03;5.47;;;1.80;;
3443;SDS011;1736;52.068;6.968;2022-10-03T14:35:41;7.90;;;1.93;;
3443;SDS011;1736;52.068;6.968;2022-10-03T14:38:21;8.13;;;2.07;;
3443;SDS011;1736;52.068;6.968;2022-10-03T14:41:27;3.50;;;1.60;;
3443;SDS011;1736;52.068;6.968;2022-10-03T14:44:04;6.23;;;2.07;;
3443;SDS011;1736;52.068;6.968;2022-10-03T14:46:39;5.07;;;1.90;;
3443;SDS011;1736;52.068;6.968;2022-10-03T14:49:17;10.30;;;1.90;;
3443;SDS011;1736;52.068;6.968;2022-10-03T14:51:49;2.23;;;1.43;;
3443;SDS011;1736;52.068;6.968;2022-10-03T14:54:21;3.17;;;1.50;;
3443;SDS011;1736;52.068;6.968;2022-10-03T14:56:50;4.23;;;1.40;;
3443;SDS011;1736;52.068;6.968;2022-10-03T14:59:19;8.00;;;1.60;;
3443;SDS011;1736;52.068;6.968;2022-10-03T15:01:51;3.37;;;1.47;;
3443;SDS011;1736;52.068;6.968;2022-10-03T15:04:25;5.53;;;1.60;;
3443;SDS011;1736;52.068;6.968;2022-10-03T15:06:54;5.80;;;1.67;;
3443;SDS011;1736;52.068;6.968;2022-10-03T15:09:25;4.87;;;1.90;;
3443;SDS011;1736;52.068;6.968;2022-10-03T15:11:58;2.70;;;1.40;;
3443;SDS011;1736;52.068;6.968;2022-10-03T15:14:29;2.80;;;1.50;;
3443;SDS011;1736;52.068;6.968;2022-10-03T15:17:00;3.27;;;1.40;;
3443;SDS011;1736;52.068;6.968;2022-10-03T15:19:34;3.43;;;1.30;;
3443;SDS011;1736;52.068;6.968;2022-10-03T15:22:14;2.70;;;1.67;;
3443;SDS011;1736;52.068;6.968;2022-10-03T15:24:48;1.50;;;1.40;;
3443;SDS011;1736;52.068;6.968;2022-10-03T15:27:18;4.50;;;1.70;;
3443;SDS011;1736;52.068;6.968;2022-10-03T15:29:47;6.17;;;1.67;;
3443;SDS011;1736;52.068;6.968;2022-10-03T15:32:19;7.93;;;1.67;;
3443;SDS011;1736;52.068;6.968;2022-10-03T15:34:49;4.87;;;1.80;;
3443;SDS011;1736;52.068;6.968;2022-10-03T15:37:20;2.50;;;1.30;;
3443;SDS011;1736;52.068;6.968;2022-10-03T15:39:52;5.40;;;1.90;;
3443;SDS011;1736;52.068;6.968;2022-10-03T15:42:27;2.23;;;1.50;;
3443;SDS011;1736;52.068;6.968;2022-10-03T15:44:57;3.10;;;2.13;;
3443;SDS011;1736;52.068;6.968;2022-10-03T15:47:28;3.47;;;1.40;;
3443;SDS011;1736;52.068;6.968;2022-10-03T15:49:58;5.70;;;1.90;;
3443;SDS011;1736;52.068;6.968;2022-10-03T15:52:30;5.63;;;2.00;;
3443;SDS011;1736;52.068;6.968;2022-10-03T15:55:05;5.07;;;1.53;;
3443;SDS011;1736;52.068;6.968;2022-10-03T15:57:34;5.13;;;1.70;;
3443;SDS011;1736;52.068;6.968;2022-10-03T16:00:04;5.27;;;1.77;;
3443;SDS011;1736;52.068;6.968;2022-10-03T16:02:33;2.57;;;1.50;;
3443;SDS011;1736;52.068;6.968;2022-10-03T16:05:05;2.93;;;1.50;;
3443;SDS011;1736;52.068;6.968;2022-10-03T16:07:40;2.57;;;1.57;;
3443;SDS011;1736;52.068;6.968;2022-10-03T16:10:16;2.67;;;1.60;;
3443;SDS011;1736;52.068;6.968;2022-10-03T16:12:55;2.53;;;1.63;;
3443;SDS011;1736;52.068;6.968;2022-10-03T16:15:25;4.50;;;2.10;;
3443;SDS011;1736;52.068;6.968;2022-10-03T16:18:03;5.90;;;1.67;;
3443;SDS011;1736;52.068;6.968;2022-10-03T16:20:38;7.30;;;2.03;;
3443;SDS011;1736;52.068;6.968;2022-10-03T16:23:10;7.10;;;2.20;;
3443;SDS011;1736;52.068;6.968;2022-10-03T16:25:44;5.20;;;2.20;;
3443;SDS011;1736;52.068;6.968;2022-10-03T16:28:15;9.57;;;2.40;;
3443;SDS011;1736;52.068;6.968;2022-10-03T16:30:46;7.30;;;1.70;;
3443;SDS011;1736;52.068;6.968;2022-10-03T16:33:19;3.43;;;1.53;;
3443;SDS011;1736;52.068;6.968;2022-10-03T16:35:53;10.00;;;2.20;;
3443;SDS011;1736;52.068;6.968;2022-10-03T16:38:23;3.20;;;1.60;;
3443;SDS011;1736;52.068;6.968;2022-10-03T16:40:52;6.23;;;2.20;;
3443;SDS011;1736;52.068;6.968;2022-10-03T16:43:23;4.53;;;1.70;;
3443;SDS011;1736;52.068;6.968;2022-10-03T16:45:51;2.60;;;1.80;;
3443;SDS011;1736;52.068;6.968;2022-10-03T16:48:22;3.87;;;1.80;;
3443;SDS011;1736;52.068;6.968;2022-10-03T16:51:16;9.70;;;2.07;;
3443;SDS011;1736;52.068;6.968;2022-10-03T16:53:52;3.73;;;2.10;;
3443;SDS011;1736;52.068;6.968;2022-10-03T16:56:21;3.40;;;1.93;;
3443;SDS011;1736;52.068;6.968;2022-10-03T16:58:51;5.20;;;2.27;;
3443;SDS011;1736;52.068;6.968;2022-10-03T17:01:24;2.23;;;2.03;;
3443;SDS011;1736;52.068;6.968;2022-10-03T17:03:57;3.07;;;1.83;;
3443;SDS011;1736;52.068;6.968;2022-10-03T17:06:35;2.33;;;1.90;;
3443;SDS011;1736;52.068;6.968;2022-10-03T17:09:05;2.40;;;1.70;;
3443;SDS011;1736;52.068;6.968;2022-10-03T17:11:41;1.97;;;1.70;;
3443;SDS011;1736;52.068;6.968;2022-10-03T17:14:15;4.60;;;2.13;;
3443;SDS011;1736;52.068;6.968;2022-10-03T17:16:45;2.73;;;1.70;;
3443;SDS011;1736;52.068;6.968;2022-10-03T17:19:18;3.00;;;1.93;;
3443;SDS011;1736;52.068;6.968;2022-10-03T17:21:54;4.20;;;2.23;;
3443;SDS011;1736;52.068;6.968;2022-10-03T17:24:34;5.60;;;2.20;;
3443;SDS011;1736;52.068;6.968;2022-10-03T17:27:08;10.17;;;4.10;;
3443;SDS011;1736;52.068;6.968;2022-10-03T17:29:41;6.10;;;2.70;;
3443;SDS011;1736;52.068;6.968;2022-10-03T17:32:13;5.37;;;3.00;;
3443;SDS011;1736;52.068;6.968;2022-10-03T17:34:46;7.10;;;2.63;;
3443;SDS011;1736;52.068;6.968;2022-10-03T17:37:26;5.70;;;2.47;;
3443;SDS011;1736;52.068;6.968;2022-10-03T17:40:15;9.07;;;2.90;;
3443;SDS011;1736;52.068;6.968;2022-10-03T17:42:48;6.50;;;2.70;;
3443;SDS011;1736;52.068;6.968;2022-10-03T17:45:32;5.53;;;3.97;;
3443;SDS011;1736;52.068;6.968;2022-10-03T17:48:10;7.10;;;4.73;;
3443;SDS011;1736;52.068;6.968;2022-10-03T17:50:47;4.10;;;3.70;;
3443;SDS011;1736;52.068;6.968;2022-10-03T17:53:23;4.30;;;3.20;;
3443;SDS011;1736;52.068;6.968;2022-10-03T17:55:53;4.10;;;3.20;;
3443;SDS011;1736;52.068;6.968;2022-10-03T17:58:22;12.57;;;5.40;;
3443;SDS011;1736;52.068;6.968;2022-10-03T18:00:54;4.00;;;3.07;;
3443;SDS011;1736;52.068;6.968;2022-10-03T18:03:27;6.23;;;3.23;;
3443;SDS011;1736;52.068;6.968;2022-10-03T18:06:01;9.57;;;3.70;;
3443;SDS011;1736;52.068;6.968;2022-10-03T18:08:49;7.80;;;3.90;;
3443;SDS011;1736;52.068;6.968;2022-10-03T18:11:19;6.80;;;4.27;;
3443;SDS011;1736;52.068;6.968;2022-10-03T18:13:50;9.33;;;3.70;;
3443;SDS011;1736;52.068;6.968;2022-10-03T18:16:21;9.77;;;3.60;;
3443;SDS011;1736;52.068;6.968;2022-10-03T18:19:07;6.20;;;3.83;;
3443;SDS011;1736;52.068;6.968;2022-10-03T18:21:50;8.13;;;4.93;;
3443;SDS011;1736;52.068;6.968;2022-10-03T18:24:28;11.13;;;5.83;;
3443;SDS011;1736;52.068;6.968;2022-10-03T18:27:08;16.63;;;5.50;;
3443;SDS011;1736;52.068;6.968;2022-10-03T18:29:57;7.50;;;5.43;;
3443;SDS011;1736;52.068;6.968;2022-10-03T18:32:28;17.00;;;8.53;;
3443;SDS011;1736;52.068;6.968;2022-10-03T18:34:59;13.67;;;8.20;;
3443;SDS011;1736;52.068;6.968;2022-10-03T18:40:44;10.60;;;8.80;;
3443;SDS011;1736;52.068;6.968;2022-10-03T18:43:21;20.43;;;9.37;;
3443;SDS011;1736;52.068;6.968;2022-10-03T18:45:52;12.60;;;7.90;;
3443;SDS011;1736;52.068;6.968;2022-10-03T18:48:28;15.03;;;8.47;;
3443;SDS011;1736;52.068;6.968;2022-10-03T18:51:02;12.97;;;8.27;;
3443;SDS011;1736;52.068;6.968;2022-10-03T18:53:38;13.70;;;8.73;;
3443;SDS011;1736;52.068;6.968;2022-10-03T18:56:12;13.90;;;8.97;;
3443;SDS011;1736;52.068;6.968;2022-10-03T18:58:49;14.13;;;8.53;;
3443;SDS011;1736;52.068;6.968;2022-10-03T19:01:30;15.77;;;10.30;;
3443;SDS011;1736;52.068;6.968;2022-10-03T19:04:09;15.67;;;9.07;;
3443;SDS011;1736;52.068;6.968;2022-10-03T19:06:40;11.43;;;6.80;;
3443;SDS011;1736;52.068;6.968;2022-10-03T19:09:12;10.63;;;6.20;;
3443;SDS011;1736;52.068;6.968;2022-10-03T19:11:45;14.73;;;8.20;;
3443;SDS011;1736;52.068;6.968;2022-10-03T19:14:16;19.90;;;11.07;;
3443;SDS011;1736;52.068;6.968;2022-10-03T19:19:46;19.70;;;12.37;;
3443;SDS011;1736;52.068;6.968;2022-10-03T19:22:16;18.77;;;10.40;;
3443;SDS011;1736;52.068;6.968;2022-10-03T19:24:49;13.60;;;9.00;;
3443;SDS011;1736;52.068;6.968;2022-10-03T19:27:18;9.53;;;7.30;;
3443;SDS011;1736;52.068;6.968;2022-10-03T19:30:04;14.13;;;9.10;;
3443;SDS011;1736;52.068;6.968;2022-10-03T19:32:41;19.13;;;10.97;;
3443;SDS011;1736;52.068;6.968;2022-10-03T19:35:13;19.33;;;11.77;;